Terminal Aerodrome Forecast
Issued by NWS

Home | Current Version | Previous Version | Graphics & Text | Print | Product List | Glossary On
Versions: 1 2 3 4 5 6 7 8 9 10 11 12 13 14 15 16 17 18 19 20 21 22 23 24 25
995
FTUS41 KCLE 102212 AAB
TAFFDY
TAF AMD
KFDY 102212Z 1022/1118 27015G25KT 2SM -SHSN BKN018 OVC035
      TEMPO 1022/1023 1/2SM SN OVC014
     FM110000 28014KT 5SM -SHSN OVC035
     FM110500 29010KT P6SM BKN035=

USA.gov is the U.S. government's official web portal to all federal, state and local government web resources and services.